Telford Dawley, United Kingdom
Current Conditions -  °F | °C
As of 3:50 PM on Wednesday 28 Jan 2015 (Local Time) from EGOS Reporting Station
Few Clouds Few Clouds  
Wind Chill: 30°   Ceiling: Unl
Heat Index: 39°   Visibility: 6mi
Dew Point: 27°   Wind: 17mph
Humidity: 61%   Direction: 270°W
Pressure: 29.53"   Gusts: NA
Location:  52.67°N, 2.47°W
Report Text: EGOS 281550Z 27015KT 9999 FEW025 04/M03 Q1000 BLU NOSIG
Loading
Personal Weather Stations






























Interactive Weather Map New forecast layout! Learn more

10-Day Weather Forecast

Advertisements
Track Severe Weather on mobile